Time;durP1;ratioP1;P1;durP2;ratioP2;P2;SDS_P1;SDS_P2;PMS_P1;PMS_P2;Temp;Humidity;BMP_temperature;BMP_pressure;BME280_temperature;BME280_humidity;BME280_pressure;Samples;Min_cycle;Max_cycle;Signal;HPM_P1;HPM_P2
2022/04/04 00:02:03;;;;;;;6.93;4.30;;;;;;;-142.75;100.00;78594.41;5053227;28;20025;-66
2022/04/04 00:04:28;;;;;;;7.27;4.13;;;;;;;-142.75;100.00;78594.41;5034675;28;20390;-65
2022/04/04 00:06:53;;;;;;;6.40;4.15;;;;;;;-142.75;100.00;78582.59;5052991;28;20037;-66
2022/04/04 00:09:19;;;;;;;7.00;4.07;;;;;;;-142.75;100.00;78578.63;5052103;28;20364;-66
2022/04/04 00:11:44;;;;;;;7.22;4.15;;;;;;;-142.75;100.00;78576.66;5052903;28;20023;-66
2022/04/04 00:14:10;;;;;;;7.20;4.38;;;;;;;-142.75;100.00;78574.69;5053068;28;20027;-66
2022/04/04 00:16:35;;;;;;;8.93;4.05;;;;;;;-142.75;100.00;78568.78;5052675;28;20025;-67
2022/04/04 00:19:01;;;;;;;8.05;4.18;;;;;;;-142.75;100.00;78572.72;5052379;28;20044;-66
2022/04/04 00:21:26;;;;;;;5.68;3.38;;;;;;;-142.75;100.00;78568.78;5052929;28;20541;-66
2022/04/04 00:23:51;;;;;;;7.43;4.10;;;;;;;-142.75;100.00;78558.94;5052170;28;20037;-66
2022/04/04 00:26:17;;;;;;;8.27;3.97;;;;;;;-142.75;100.00;78560.91;5051577;28;20028;-66
2022/04/04 00:28:42;;;;;;;6.70;3.63;;;;;;;-142.75;100.00;78555.00;5051946;28;20776;-65
2022/04/04 00:31:07;;;;;;;6.23;3.43;;;;;;;-142.75;100.00;78555.00;5052664;28;20294;-66
2022/04/04 00:33:32;;;;;;;5.27;3.60;;;;;;;-142.75;100.00;78555.00;5052557;28;20274;-66
2022/04/04 00:35:58;;;;;;;7.25;4.00;;;;;;;-142.75;100.00;78551.06;5052388;28;20092;-66
2022/04/04 00:38:23;;;;;;;5.68;3.38;;;;;;;-142.75;100.00;78547.13;5052242;28;20102;-66
2022/04/04 00:40:49;;;;;;;6.85;3.90;;;;;;;-142.75;100.00;78539.25;5052281;28;20025;-66
2022/04/04 00:43:14;;;;;;;6.03;3.55;;;;;;;-142.75;100.00;78539.25;5051566;28;20021;-66
2022/04/04 00:45:44;;;;;;;6.30;3.25;;;;;;;-142.75;100.00;78539.25;5050979;28;20475;-66
2022/04/04 00:48:09;;;;;;;6.57;3.33;;;;;;;-142.75;100.00;78541.22;5051936;28;20032;-66
2022/04/04 00:50:35;;;;;;;9.15;4.45;;;;;;;-142.75;100.00;78531.38;5050766;28;20025;-66
2022/04/04 00:53:01;;;;;;;5.97;3.50;;;;;;;-142.75;100.00;78527.44;5051822;28;20074;-66
2022/04/04 00:55:27;;;;;;;6.80;3.80;;;;;;;-142.75;100.00;78523.50;5052162;28;20323;-66
2022/04/04 00:57:54;;;;;;;9.82;3.85;;;;;;;-142.75;100.00;78513.66;5050612;28;20017;-66
2022/04/04 01:00:20;;;;;;;11.07;4.17;;;;;;;-142.75;100.00;78503.81;5051946;28;20040;-66
2022/04/04 01:02:45;;;;;;;5.43;3.53;;;;;;;-142.75;100.00;78503.81;5052127;28;20364;-66
2022/04/04 01:05:11;;;;;;;7.57;4.18;;;;;;;-142.75;100.00;78501.84;5052140;28;20078;-66
2022/04/04 01:07:38;;;;;;;7.57;4.00;;;;;;;-142.75;100.00;78488.03;5051413;28;20037;-65
2022/04/04 01:10:06;;;;;;;8.73;4.00;;;;;;;-142.75;100.00;78488.03;5051531;28;20029;-66
2022/04/04 01:12:31;;;;;;;6.37;3.80;;;;;;;-142.75;100.00;78480.16;5051662;28;20021;-66
2022/04/04 01:14:56;;;;;;;8.05;4.00;;;;;;;-142.75;100.00;78472.28;5051559;28;20052;-66
2022/04/04 01:17:21;;;;;;;6.93;3.87;;;;;;;-142.75;100.00;78470.31;5051708;28;20114;-66
2022/04/04 01:19:47;;;;;;;7.75;3.90;;;;;;;-142.75;100.00;78470.31;5051182;28;20033;-66
2022/04/04 01:22:14;;;;;;;13.27;4.93;;;;;;;-142.75;100.00;78464.41;5051831;28;20071;-66
2022/04/04 01:24:40;;;;;;;9.53;4.47;;;;;;;-142.75;100.00;78452.59;5051606;28;20033;-66
2022/04/04 01:27:07;;;;;;;7.53;4.13;;;;;;;-142.75;100.00;78448.66;5051452;28;20395;-65
2022/04/04 01:29:34;;;;;;;7.57;4.00;;;;;;;-142.75;100.00;78436.84;5051532;28;20041;-66
2022/04/04 01:32:00;;;;;;;10.40;4.43;;;;;;;-142.75;100.00;78436.84;5051563;28;20021;-66
2022/04/04 01:34:25;;;;;;;7.90;4.22;;;;;;;-142.75;100.00;78434.88;5051488;28;20032;-66
2022/04/04 01:36:50;;;;;;;6.25;4.25;;;;;;;-142.75;100.00;78419.13;5051389;28;20055;-65
2022/04/04 01:39:16;;;;;;;8.55;4.72;;;;;;;-142.75;100.00;78415.19;5051213;28;20037;-66
2022/04/04 01:41:42;;;;;;;6.70;4.45;;;;;;;-142.75;100.00;78407.31;5066819;28;20475;-66
2022/04/04 01:44:08;;;;;;;9.77;4.95;;;;;;;-142.75;100.00;78399.44;5051415;28;20036;-66
2022/04/04 01:46:34;;;;;;;10.05;4.88;;;;;;;-142.75;100.00;78393.50;5051408;28;20025;-66
2022/04/04 01:49:01;;;;;;;7.78;4.57;;;;;;;-142.75;100.00;78391.53;5050937;28;20053;-66
2022/04/04 01:51:27;;;;;;;10.07;5.00;;;;;;;-142.75;100.00;78387.59;5051643;28;20037;-66
2022/04/04 01:53:52;;;;;;;11.10;5.50;;;;;;;-142.75;100.00;78385.63;5051723;28;20017;-66
2022/04/04 01:56:18;;;;;;;8.90;5.63;;;;;;;-142.75;100.00;78371.84;5054992;28;20502;-66
2022/04/04 01:58:44;;;;;;;14.32;5.20;;;;;;;-142.75;100.00;78365.94;5055216;28;20078;-66
2022/04/04 02:01:19;;;;;;;;;;;;;;;-142.75;100.00;78365.94;5055934;28;20475;-66
2022/04/04 02:03:47;;;;;;;10.20;5.70;;;;;;;-142.75;100.00;78362.00;5055107;28;19912;-66
2022/04/04 02:06:13;;;;;;;8.97;5.03;;;;;;;-142.75;100.00;78350.19;5055323;28;20021;-66
2022/04/04 02:08:40;;;;;;;10.17;5.27;;;;;;;-142.75;100.00;78352.16;5055386;28;20025;-66
2022/04/04 02:11:06;;;;;;;7.97;5.60;;;;;;;-142.75;100.00;78344.28;5054669;28;20032;-66
2022/04/04 02:13:31;;;;;;;9.70;5.53;;;;;;;-142.75;100.00;78338.38;5055666;28;20036;-66
2022/04/04 02:16:00;;;;;;;9.27;5.77;;;;;;;-142.75;100.00;78334.44;5037113;28;20422;-66
2022/04/04 02:18:27;;;;;;;7.30;5.13;;;;;;;-142.75;100.00;78336.41;5055063;28;20275;-65
2022/04/04 02:20:52;;;;;;;10.45;4.93;;;;;;;-142.75;100.00;78330.50;5055022;28;20025;-66
2022/04/04 02:23:18;;;;;;;8.87;5.23;;;;;;;-142.75;100.00;78322.63;5054944;28;20132;-66
2022/04/04 02:25:47;;;;;;;;;;;;;;;-142.75;100.00;78320.66;5054174;28;20613;-66
2022/04/04 02:28:13;;;;;;;8.97;4.90;;;;;;;-142.75;100.00;78320.66;5053239;28;19913;-66
2022/04/04 02:30:39;;;;;;;8.82;5.57;;;;;;;-142.75;100.00;78306.88;5054638;28;20082;-67
2022/04/04 02:33:04;;;;;;;10.55;5.03;;;;;;;-142.75;100.00;78299.00;5054705;28;20025;-67
2022/04/04 02:35:30;;;;;;;11.15;5.50;;;;;;;-142.75;100.00;78291.09;5070145;28;20048;-66
2022/04/04 02:37:55;;;;;;;7.97;4.40;;;;;;;-142.75;100.00;78277.31;5054387;28;20028;-66
2022/04/04 02:40:21;;;;;;;10.27;4.75;;;;;;;-142.75;100.00;78283.22;5054409;28;20029;-68
2022/04/04 02:42:47;;;;;;;;;;;;;;;-142.75;100.00;78269.44;5054674;28;20055;-67
2022/04/04 02:45:12;;;;;;;12.50;4.77;;;;;;;-142.75;100.00;78253.69;5053062;28;19916;-67
2022/04/04 02:47:38;;;;;;;8.43;4.72;;;;;;;-142.75;100.00;78255.66;5069595;28;20055;-66
2022/04/04 02:50:04;;;;;;;8.40;5.10;;;;;;;-142.75;100.00;78253.69;5053924;28;20028;-67
2022/04/04 02:52:30;;;;;;;8.63;4.78;;;;;;;-142.75;100.00;78255.66;5069608;28;20044;-67
2022/04/04 02:54:55;;;;;;;8.43;4.82;;;;;;;-142.75;100.00;78249.75;5054179;28;20021;-67
2022/04/04 02:57:21;;;;;;;11.17;5.17;;;;;;;-142.75;100.00;78249.75;5052708;28;20024;-66
2022/04/04 02:59:46;;;;;;;8.38;5.05;;;;;;;-142.75;100.00;78237.94;5053748;28;20055;-67
2022/04/04 03:02:12;;;;;;;8.00;4.78;;;;;;;-142.75;100.00;78235.97;5069339;28;20498;-66
2022/04/04 03:04:40;;;;;;;7.90;4.60;;;;;;;-142.75;100.00;78235.97;5052987;28;20028;-67
2022/04/04 03:07:07;;;;;;;9.07;5.03;;;;;;;-142.75;100.00;78234.00;5054075;28;20040;-67
2022/04/04 03:09:32;;;;;;;13.23;5.57;;;;;;;-142.75;100.00;78228.09;5053641;28;20032;-67
2022/04/04 03:11:57;;;;;;;7.33;5.03;;;;;;;-142.75;100.00;78222.19;5053919;28;20635;-67
2022/04/04 03:14:23;;;;;;;9.02;5.00;;;;;;;-142.75;100.00;78216.28;5053746;28;20264;-67
2022/04/04 03:16:48;;;;;;;9.05;5.20;;;;;;;-142.75;100.00;78206.44;5069154;28;20521;-67
2022/04/04 03:19:14;;;;;;;8.90;4.68;;;;;;;-142.75;100.00;78202.50;5053245;28;20073;-67
2022/04/04 03:21:40;;;;;;;7.20;4.65;;;;;;;-142.75;100.00;78198.56;5049538;28;20029;-67
2022/04/04 03:24:11;;;;;;;9.98;4.55;;;;;;;-142.75;100.00;78200.53;5053335;28;20497;-67
2022/04/04 03:26:36;;;;;;;9.73;5.47;;;;;;;-142.75;100.00;78182.81;5053319;28;20487;-67
2022/04/04 03:29:02;;;;;;;9.73;5.53;;;;;;;-142.75;100.00;78178.84;5052991;28;20033;-67
2022/04/04 03:31:27;;;;;;;12.07;5.10;;;;;;;-142.75;100.00;78170.97;5068540;28;20274;-67
2022/04/04 03:33:52;;;;;;;7.17;4.70;;;;;;;-142.75;100.00;78163.09;5053172;28;20027;-67
2022/04/04 03:36:20;;;;;;;9.20;4.83;;;;;;;-142.75;100.00;78155.22;5053372;28;20263;-67
2022/04/04 03:38:45;;;;;;;9.43;4.70;;;;;;;-142.75;100.00;78151.28;5068392;28;20370;-67
2022/04/04 03:41:10;;;;;;;9.98;5.18;;;;;;;-142.75;100.00;78141.44;5052981;28;20053;-67
2022/04/04 03:43:36;;;;;;;8.88;5.00;;;;;;;-142.75;100.00;78131.59;5052746;28;20025;-67
2022/04/04 03:46:01;;;;;;;10.05;4.60;;;;;;;-142.75;100.00;78135.53;5053078;28;20108;-67
2022/04/04 03:48:27;;;;;;;9.85;4.88;;;;;;;-142.75;100.00;78113.88;5052827;28;20035;-67
2022/04/04 03:50:54;;;;;;;8.80;4.60;;;;;;;-142.75;100.00;78107.97;5053037;28;20020;-67
2022/04/04 03:53:21;;;;;;;11.47;4.37;;;;;;;-142.75;100.00;78098.13;5052750;28;20035;-67
2022/04/04 03:55:47;;;;;;;7.87;3.90;;;;;;;-142.75;100.00;78090.25;5053123;28;20359;-67
2022/04/04 03:58:12;;;;;;;;;;;;;;;-142.75;100.00;78086.31;5053154;28;20063;-67
2022/04/04 04:00:39;;;;;;;7.17;4.00;;;;;;;-142.75;100.00;78086.31;5054025;28;19940;-66
2022/04/04 04:03:05;;;;;;;9.53;4.27;;;;;;;-142.75;100.00;78088.28;5037687;28;20028;-66
2022/04/04 04:05:31;;;;;;;8.77;4.60;;;;;;;-142.75;100.00;78082.38;5052630;28;20021;-66
2022/04/04 04:07:56;;;;;;;11.25;4.82;;;;;;;-142.75;100.00;78066.63;5067719;28;20462;-66
2022/04/04 04:10:22;;;;;;;13.18;4.53;;;;;;;-142.75;100.00;78066.63;5052527;28;20547;-67
2022/04/04 04:12:48;;;;;;;9.23;4.68;;;;;;;-142.75;100.00;78054.81;5052645;28;20104;-67
2022/04/04 04:15:19;;;;;;;8.97;4.27;;;;;;;-142.75;100.00;78050.84;5068224;28;20029;-67
2022/04/04 04:17:45;;;;;;;8.63;4.53;;;;;;;-142.75;100.00;78044.94;5051470;28;20028;-65
2022/04/04 04:20:20;;;;;;;9.43;4.25;;;;;;;-142.75;100.00;78042.97;5068298;22;20410;-67
2022/04/04 04:22:47;;;;;;;7.43;4.03;;;;;;;-142.75;100.00;78044.94;5049738;28;20059;-67
2022/04/04 04:25:14;;;;;;;10.40;4.00;;;;;;;-142.75;100.00;78035.09;5045510;28;20029;-67
2022/04/04 04:27:41;;;;;;;9.87;4.47;;;;;;;-142.75;100.00;78023.28;5049221;28;20048;-67
2022/04/04 04:30:07;;;;;;;9.10;4.20;;;;;;;-142.75;100.00;78019.34;5042563;28;20449;-67
2022/04/04 04:32:32;;;;;;;8.57;4.35;;;;;;;-142.75;100.00;78011.47;5050188;28;20063;-67
2022/04/04 04:34:58;;;;;;;11.48;3.95;;;;;;;-142.75;100.00;78005.56;5050930;28;20520;-67
2022/04/04 04:37:23;;;;;;;8.00;4.13;;;;;;;-142.75;100.00;78007.53;5038162;28;20402;-67
2022/04/04 04:39:49;;;;;;;6.87;4.23;;;;;;;-142.75;100.00;77997.69;5030913;28;20483;-67
2022/04/04 04:42:14;;;;;;;12.10;4.57;;;;;;;-142.75;100.00;77999.66;5048598;28;20279;-67
2022/04/04 04:44:39;;;;;;;10.55;3.97;;;;;;;-142.75;100.00;77983.91;5051112;28;20410;-67
2022/04/04 04:47:05;;;;;;;6.50;4.13;;;;;;;-142.75;100.00;77966.19;5049757;28;20052;-65
2022/04/04 04:49:32;;;;;;;8.57;4.80;;;;;;;-142.75;100.00;77966.19;5050813;28;20271;-67
2022/04/04 04:51:57;;;;;;;8.77;4.33;;;;;;;-142.75;100.00;77964.22;5039648;28;20013;-68
2022/04/04 04:54:23;;;;;;;7.55;4.07;;;;;;;-142.75;100.00;77958.31;5029884;28;20483;-67
2022/04/04 04:56:48;;;;;;;8.52;4.40;;;;;;;-142.75;100.00;77946.50;5031063;28;20021;-68
2022/04/04 04:59:13;;;;;;;8.68;4.32;;;;;;;-142.75;100.00;77940.59;5044121;28;20021;-68
2022/04/04 05:01:39;;;;;;;10.40;4.93;;;;;;;-142.75;100.00;77940.59;5050733;28;20017;-68
2022/04/04 05:04:05;;;;;;;9.77;4.57;;;;;;;-142.75;100.00;77924.84;5050946;28;20100;-68
2022/04/04 05:06:31;;;;;;;7.85;4.30;;;;;;;-142.75;100.00;77920.91;5050924;28;20044;-67
2022/04/04 05:08:59;;;;;;;9.68;4.47;;;;;;;-142.75;100.00;77924.84;5037468;28;20029;-68
2022/04/04 05:11:25;;;;;;;8.27;4.30;;;;;;;-142.75;100.00;77913.03;5047475;28;20120;-67
2022/04/04 05:13:50;;;;;;;8.60;4.05;;;;;;;-142.75;100.00;77909.06;5031939;28;20117;-67
2022/04/04 05:16:15;;;;;;;11.07;4.93;;;;;;;-142.75;100.00;77901.19;5045362;28;20029;-69
2022/04/04 05:18:44;;;;;;;9.25;5.00;;;;;;;-142.75;100.00;77907.09;5039310;28;20273;-67
2022/04/04 05:21:11;;;;;;;10.33;4.90;;;;;;;-142.75;100.00;77885.44;5039372;28;20025;-67
2022/04/04 05:23:36;;;;;;;9.80;4.77;;;;;;;-142.75;100.00;77889.38;5034719;28;20029;-67
2022/04/04 05:26:04;;;;;;;8.82;5.25;;;;;;;-142.75;100.00;77873.63;5036033;28;20376;-68
2022/04/04 05:28:29;;;;;;;9.73;6.13;;;;;;;-142.75;100.00;77869.69;5034263;28;20032;-68
2022/04/04 05:30:55;;;;;;;8.20;5.18;;;;;;;-142.75;100.00;77859.84;5037813;28;20025;-67
2022/04/04 05:33:20;;;;;;;11.38;5.00;;;;;;;-142.75;100.00;77863.78;5045486;28;20064;-67
2022/04/04 05:35:46;;;;;;;9.98;5.65;;;;;;;-142.75;100.00;77859.84;5047398;28;20083;-67
2022/04/04 05:38:13;;;;;;;9.38;5.55;;;;;;;-142.75;100.00;77859.84;5046584;28;20364;-67
2022/04/04 05:40:38;;;;;;;10.93;5.53;;;;;;;-142.75;100.00;77855.91;5030411;28;20122;-68
2022/04/04 05:43:04;;;;;;;9.50;5.90;;;;;;;-142.75;100.00;77846.06;5035708;28;20029;-67
2022/04/04 05:45:30;;;;;;;10.85;5.75;;;;;;;-142.75;100.00;77848.03;5050313;28;20108;-67
2022/04/04 05:47:55;;;;;;;10.63;5.75;;;;;;;-142.75;100.00;77834.25;5036388;28;20021;-66
2022/04/04 05:50:20;;;;;;;12.85;6.15;;;;;;;-142.75;100.00;77828.34;5050418;28;20033;-67
2022/04/04 05:52:46;;;;;;;9.27;5.78;;;;;;;-142.75;100.00;77838.19;5031962;28;20049;-68
2022/04/04 05:55:12;;;;;;;11.63;5.60;;;;;;;-142.75;100.00;77832.28;5031912;28;20028;-67
2022/04/04 05:57:39;;;;;;;12.02;6.22;;;;;;;-142.75;100.00;77826.38;5030378;28;20104;-67
2022/04/04 06:00:11;;;;;;;12.60;5.93;;;;;;;-142.75;100.00;77820.47;5032809;28;20028;-67
2022/04/04 06:02:41;;;;;;;9.37;5.50;;;;;;;-142.75;100.00;77814.56;5050233;28;20047;-67
2022/04/04 06:05:07;;;;;;;11.20;6.07;;;;;;;-142.75;100.00;77812.59;5037956;28;20030;-67
2022/04/04 06:07:33;;;;;;;10.20;5.70;;;;;;;-142.75;100.00;77814.56;5031749;28;20097;-67
2022/04/04 06:09:59;;;;;;;11.93;6.28;;;;;;;-142.75;100.00;77814.56;5030159;28;20541;-65
2022/04/04 06:12:24;;;;;;;11.43;6.57;;;;;;;-142.75;100.00;77818.50;5034911;28;20016;-67
2022/04/04 06:14:49;;;;;;;13.38;6.20;;;;;;;-142.75;100.00;77810.63;5050146;28;20028;-69
2022/04/04 06:17:15;;;;;;;8.88;6.05;;;;;;;-142.75;100.00;77810.63;5048807;28;20067;-66
2022/04/04 06:19:41;;;;;;;10.35;5.60;;;;;;;-142.75;100.00;77818.50;5043260;28;20029;-67
2022/04/04 06:22:07;;;;;;;11.47;6.23;;;;;;;-142.75;100.00;77806.69;5046037;28;20017;-67
2022/04/04 06:24:33;;;;;;;12.73;7.07;;;;;;;-142.75;100.00;77806.69;5049141;28;20360;-67
2022/04/04 06:26:59;;;;;;;14.98;6.65;;;;;;;-142.75;100.00;77810.63;5048879;28;20024;-66
2022/04/04 06:29:24;;;;;;;11.90;6.70;;;;;;;-142.75;100.00;77808.66;5048766;28;20025;-67
2022/04/04 06:31:51;;;;;;;11.00;6.27;;;;;;;-142.75;100.00;77798.81;5048699;28;20046;-67
2022/04/04 06:34:17;;;;;;;8.97;6.07;;;;;;;-142.75;100.00;77800.78;5049035;28;20271;-66
2022/04/04 06:36:42;;;;;;;10.00;5.65;;;;;;;-142.75;100.00;77794.88;5045282;28;20399;-66
2022/04/04 06:39:07;;;;;;;10.57;5.00;;;;;;;-142.75;100.00;77792.91;5030191;28;20038;-67
2022/04/04 06:41:33;;;;;;;9.38;5.47;;;;;;;-142.75;100.00;77790.94;5044880;28;20036;-66
2022/04/04 06:43:58;;;;;;;8.52;5.13;;;;;;;-142.75;100.00;77779.13;5049325;28;20025;-67
2022/04/04 06:46:25;;;;;;;15.82;6.05;;;;;;;-142.75;100.00;77769.28;5032556;28;20029;-66
2022/04/04 06:48:51;;;;;;;8.80;5.33;;;;;;;-142.75;100.00;77767.31;5039270;28;20395;-67
2022/04/04 06:51:17;;;;;;;7.50;5.00;;;;;;;-142.75;100.00;77755.50;5032467;28;20036;-67
2022/04/04 06:53:42;;;;;;;;;;;;;;;-142.75;100.00;77767.31;5033046;28;20029;-68
2022/04/04 06:56:08;;;;;;;9.67;5.47;;;;;;;-142.75;100.00;77769.28;5032684;28;19959;-66
2022/04/04 06:58:33;;;;;;;11.02;5.60;;;;;;;-142.75;100.00;77767.31;5044309;28;20016;-68
2022/04/04 07:00:59;;;;;;;8.43;5.97;;;;;;;-142.75;100.00;77761.41;5034511;28;20026;-69
2022/04/04 07:03:24;;;;;;;10.30;5.78;;;;;;;-142.75;100.00;77761.41;5031403;28;20087;-67
2022/04/04 07:05:49;;;;;;;10.63;6.53;;;;;;;-142.75;100.00;77759.44;5052033;28;20378;-67
2022/04/04 07:08:15;;;;;;;10.57;6.38;;;;;;;-142.75;100.00;77753.53;5051788;28;20031;-66
2022/04/04 07:10:40;;;;;;;9.32;5.95;;;;;;;-142.75;100.00;77739.75;5050555;28;20027;-66
2022/04/04 07:13:05;;;;;;;12.33;6.10;;;;;;;-142.75;100.00;77747.63;5052163;28;20037;-67
2022/04/04 07:15:31;;;;;;;9.50;5.53;;;;;;;-142.75;100.00;77735.81;5051187;28;20013;-66
2022/04/04 07:17:56;;;;;;;10.50;5.40;;;;;;;-142.75;100.00;77731.88;5051192;28;20035;-66
2022/04/04 07:20:21;;;;;;;12.95;6.75;;;;;;;-142.75;100.00;77720.03;5051552;28;20029;-67
2022/04/04 07:22:47;;;;;;;10.30;6.15;;;;;;;-142.75;100.00;77708.22;5051876;28;20028;-66
2022/04/04 07:25:14;;;;;;;9.65;6.45;;;;;;;-142.75;100.00;77723.97;5051259;28;20458;-67
2022/04/04 07:27:41;;;;;;;10.80;6.00;;;;;;;-142.75;100.00;77731.88;5050425;28;20029;-67
2022/04/04 07:30:08;;;;;;;13.80;6.70;;;;;;;-142.75;100.00;77723.97;5042440;28;20036;-66
2022/04/04 07:32:40;;;;;;;12.90;6.60;;;;;;;-142.75;100.00;77739.75;5031627;28;20083;-66
2022/04/04 07:35:11;;;;;;;12.07;7.13;;;;;;;-142.75;100.00;77731.88;5043773;28;20017;-66
2022/04/04 07:37:40;;;;;;;11.33;6.57;;;;;;;-142.75;100.00;77735.81;5039610;28;20112;-66
2022/04/04 07:40:07;;;;;;;12.50;6.50;;;;;;;-142.75;100.00;77739.75;5046528;28;20028;-67
2022/04/04 07:42:32;;;;;;;;;;;;;;;-142.75;100.00;77735.81;5051679;28;20563;-66
2022/04/04 07:44:58;;;;;;;15.07;7.17;;;;;;;-142.75;100.00;77731.88;5050172;28;19921;-66
2022/04/04 07:47:23;;;;;;;8.98;5.43;;;;;;;-142.75;100.00;77708.22;5041558;28;20029;-65
2022/04/04 07:49:49;;;;;;;10.38;5.18;;;;;;;-142.75;100.00;77727.94;5049509;28;20025;-66
2022/04/04 07:52:15;;;;;;;7.45;4.88;;;;;;;-142.75;100.00;77716.09;5051060;28;20016;-66
2022/04/04 07:54:40;;;;;;;8.10;4.68;;;;;;;-142.75;100.00;77706.25;5044847;28;20029;-66
2022/04/04 07:57:05;;;;;;;11.57;4.85;;;;;;;-142.75;100.00;77725.97;5043153;28;20109;-66
2022/04/04 07:59:31;;;;;;;6.43;4.30;;;;;;;-142.75;100.00;77720.03;5049037;28;20036;-67
2022/04/04 08:01:56;;;;;;;10.02;4.47;;;;;;;-142.75;100.00;77729.88;5040662;28;20017;-65
2022/04/04 08:04:22;;;;;;;8.40;4.80;;;;;;;-142.75;100.00;77733.84;5041066;28;20036;-66
2022/04/04 08:06:47;;;;;;;10.30;5.07;;;;;;;-142.75;100.00;77716.09;5035193;28;20379;-66
2022/04/04 08:09:13;;;;;;;9.20;4.88;;;;;;;-142.75;100.00;77722.00;5050272;28;20020;-65
2022/04/04 08:11:38;;;;;;;11.68;5.05;;;;;;;-142.75;100.00;77712.16;5044828;28;20104;-66
2022/04/04 08:14:08;;;;;;;9.43;3.85;;;;;;;-142.75;100.00;77710.19;5045948;28;20033;-67
2022/04/04 08:16:33;;;;;;;9.77;4.27;;;;;;;-142.75;100.00;77712.16;5050653;28;20029;-66
2022/04/04 08:18:58;;;;;;;7.75;3.67;;;;;;;-142.75;100.00;77672.78;5049205;28;20031;-67
2022/04/04 08:21:24;;;;;;;10.93;4.53;;;;;;;-142.75;100.00;77690.50;5050429;28;20025;-66
2022/04/04 08:23:49;;;;;;;14.90;4.00;;;;;;;-142.75;100.00;77700.34;5050893;28;20497;-66
2022/04/04 08:26:14;;;;;;;9.90;4.75;;;;;;;-142.75;100.00;77690.50;5045170;28;20032;-66
2022/04/04 08:28:41;;;;;;;9.77;4.25;;;;;;;-142.75;100.00;77682.63;5030328;28;20056;-66
2022/04/04 08:31:06;;;;;;;;;;;;;;;-142.75;100.00;77684.59;5036365;28;20022;-65
2022/04/04 08:33:31;;;;;;;7.40;3.37;;;;;;;-142.75;100.00;77684.59;5031388;28;19959;-66
2022/04/04 08:35:58;;;;;;;12.40;4.05;;;;;;;-142.75;100.00;77688.53;5036625;28;20021;-67
2022/04/04 08:38:23;;;;;;;11.57;4.13;;;;;;;-142.75;100.00;77684.59;5031200;28;20022;-68
2022/04/04 08:40:49;;;;;;;10.65;4.68;;;;;;;-142.75;100.00;77676.72;5051117;28;20059;-68
2022/04/04 08:43:18;;;;;;;11.53;5.17;;;;;;;-142.75;100.00;77682.63;5039639;28;20033;-66
2022/04/04 08:45:44;;;;;;;13.90;5.00;;;;;;;-142.75;100.00;77664.91;5031207;28;20029;-66
2022/04/04 08:48:10;;;;;;;11.33;3.73;;;;;;;-142.75;100.00;77668.84;5047319;28;20036;-67
2022/04/04 08:50:38;;;;;;;10.27;3.60;;;;;;;-142.75;100.00;77660.97;5036316;28;20618;-66
2022/04/04 08:53:04;;;;;;;8.73;3.53;;;;;;;-142.75;100.00;77651.13;5034643;28;20087;-66
2022/04/04 08:55:29;;;;;;;8.17;3.50;;;;;;;-142.75;100.00;77657.03;5049647;28;20151;-67
2022/04/04 08:57:56;;;;;;;13.02;3.80;;;;;;;-142.75;100.00;77651.13;5039855;28;20799;-67
2022/04/04 09:00:22;;;;;;;8.37;3.80;;;;;;;-142.75;100.00;77641.28;5049125;28;20025;-67
2022/04/04 09:03:05;;;;;;;9.57;4.03;;;;;;;-142.75;100.00;77641.28;5041198;28;20082;-68
2022/04/04 09:05:35;;;;;;;10.30;3.87;;;;;;;-142.75;100.00;77633.41;5050812;28;20040;-67
2022/04/04 09:08:07;;;;;;;9.90;3.20;;;;;;;-142.75;100.00;77629.47;5050440;28;20036;-68
2022/04/04 09:10:43;;;;;;;7.30;3.70;;;;;;;-142.75;100.00;77627.50;5046139;28;20091;-68
2022/04/04 09:13:10;;;;;;;;;;;;;;;-142.75;100.00;77625.53;5039352;28;20029;-68
2022/04/04 09:16:01;;;;;;;8.45;3.65;;;;;;;-142.75;100.00;77613.72;5049218;28;20341;-67
2022/04/04 09:18:35;;;;;;;7.37;3.43;;;;;;;-142.75;100.00;77603.88;5038828;28;20030;-67
2022/04/04 09:21:00;;;;;;;10.03;3.53;;;;;;;-142.75;100.00;77607.81;5046335;28;20566;-67
2022/04/04 09:23:33;;;;;;;7.37;3.40;;;;;;;-142.75;100.00;77584.19;5042513;28;20163;-67
2022/04/04 09:26:00;;;;;;;9.00;3.13;;;;;;;-142.75;100.00;77596.00;5049326;28;20318;-66
2022/04/04 09:28:26;;;;;;;9.60;3.20;;;;;;;-142.75;100.00;77586.16;5049186;28;20021;-66
2022/04/04 09:31:08;;;;;;;6.77;3.60;;;;;;;-142.75;100.00;77580.25;5036378;28;20096;-68
2022/04/04 09:33:41;;;;;;;5.80;3.40;;;;;;;-142.75;100.00;77588.13;5042988;28;20033;-67
2022/04/04 09:36:08;;;;;;;8.43;2.83;;;;;;;-142.75;100.00;77580.25;5029399;28;20135;-67
2022/04/04 09:38:34;;;;;;;9.30;3.30;;;;;;;-142.75;100.00;77564.50;5033004;28;20021;-69
2022/04/04 09:41:19;;;;;;;7.15;3.28;;;;;;;-142.75;100.00;77576.31;5034688;28;20029;-67
2022/04/04 09:43:52;;;;;;;6.00;2.40;;;;;;;-142.75;100.00;77562.53;5035935;28;20025;-66
2022/04/04 09:46:18;;;;;;;6.57;2.33;;;;;;;-142.75;100.00;77560.56;5039300;28;20033;-66
2022/04/04 09:49:07;;;;;;;6.03;2.35;;;;;;;-142.75;100.00;77546.78;5045270;28;20054;-68
2022/04/04 09:51:57;;;;;;;7.67;3.10;;;;;;;-142.75;100.00;77550.72;5048862;28;20032;-68
2022/04/04 09:54:28;;;;;;;5.57;2.50;;;;;;;-142.75;100.00;77544.81;5039466;28;20041;-67
2022/04/04 09:57:09;;;;;;;6.97;2.13;;;;;;;-142.75;100.00;77538.91;5042001;28;20039;-68
2022/04/04 09:59:37;;;;;;;8.33;1.97;;;;;;;-142.75;100.00;77540.88;5035724;28;20036;-67
2022/04/04 10:02:03;;;;;;;6.90;1.93;;;;;;;-142.75;100.00;77538.91;5031481;28;20021;-67
2022/04/04 10:04:31;;;;;;;8.00;2.10;;;;;;;-142.75;100.00;77536.94;5046220;28;20090;-70
2022/04/04 10:06:57;;;;;;;3.63;1.93;;;;;;;-142.75;100.00;77534.97;5039416;28;20055;-67
2022/04/04 10:09:22;;;;;;;;;;;;;;;-142.75;100.00;77527.09;5034238;28;20028;-68
2022/04/04 10:11:48;;;;;;;7.40;2.33;;;;;;;-142.75;100.00;77513.31;5034693;28;19927;-70
2022/04/04 10:14:16;;;;;;;3.40;1.63;;;;;;;-142.75;100.00;77505.44;5047639;28;20033;-67
2022/04/04 10:16:43;;;;;;;8.07;2.40;;;;;;;-142.75;100.00;77515.28;5044021;28;20483;-66
2022/04/04 10:19:11;;;;;;;9.60;3.67;;;;;;;-142.75;100.00;77497.56;5031927;28;20585;-67
2022/04/04 10:21:37;;;;;;;6.67;3.87;;;;;;;-142.75;100.00;77499.53;5076210;22;20045;-66
2022/04/04 10:24:06;;;;;;;8.30;5.28;;;;;;;-142.75;100.00;77511.34;5053648;28;20084;-66
2022/04/04 10:26:34;;;;;;;7.30;4.57;;;;;;;-142.75;100.00;77511.34;5049663;28;20021;-66
2022/04/04 10:29:09;;;;;;;8.90;5.07;;;;;;;-142.75;100.00;77503.47;5052180;28;20442;-66
2022/04/04 10:32:02;;;;;;;7.40;5.57;;;;;;;-142.75;100.00;77507.41;5053746;28;20825;-66
2022/04/04 10:34:27;;;;;;;8.83;6.00;;;;;;;-142.75;100.00;77495.59;5034969;28;20037;-66
2022/04/04 10:37:00;;;;;;;8.50;5.32;;;;;;;-142.75;100.00;77503.47;5032185;28;20029;-66
2022/04/04 10:39:47;;;;;;;12.60;5.80;;;;;;;-142.75;100.00;77487.72;5031695;28;20053;-66
2022/04/04 10:42:26;;;;;;;9.15;6.00;;;;;;;-142.75;100.00;77495.59;5032214;28;20032;-66
2022/04/04 10:45:07;;;;;;;8.33;5.30;;;;;;;-142.75;100.00;77483.78;5033516;28;20041;-66
2022/04/04 10:47:34;;;;;;;8.60;5.03;;;;;;;-142.75;100.00;77475.91;5048823;28;20098;-67
2022/04/04 10:50:22;;;;;;;13.60;5.13;;;;;;;-142.75;100.00;77464.09;5033286;28;20114;-67
2022/04/04 10:52:48;;;;;;;8.60;4.23;;;;;;;-142.75;100.00;77468.03;5033414;28;20037;-67
2022/04/04 10:55:32;;;;;;;7.30;4.60;;;;;;;-142.75;100.00;77460.13;5033549;28;20025;-68
2022/04/04 10:58:12;;;;;;;7.20;4.50;;;;;;;-142.75;100.00;77460.13;5032988;28;20029;-66
2022/04/04 11:01:07;;;;;;;5.90;3.70;;;;;;;-142.75;100.00;77430.59;5033117;28;20128;-64
2022/04/04 11:03:35;;;;;;;6.37;3.67;;;;;;;-142.75;100.00;77444.38;5033205;28;20537;-66
2022/04/04 11:09:04;;;;;;;5.27;3.77;;;;;;;-142.75;100.00;77416.81;5033148;28;20074;-66
2022/04/04 11:11:50;;;;;;;6.82;4.00;;;;;;;-142.75;100.00;77420.75;5033453;28;20025;-65
2022/04/04 11:14:42;;;;;;;5.47;3.80;;;;;;;-142.75;100.00;77416.81;5015783;28;20442;-65